sensor_id;sensor_type;location;lat;lon;timestamp;pressure;altitude;pressure_sealevel;temperature;humidity
65054;BME280;51639;47.828;35.038;2023-04-27T00:04:02;99450.13;;;16.61;100.00
65054;BME280;51639;47.828;35.038;2023-04-27T00:19:05;99402.34;;;16.48;100.00
65054;BME280;51639;47.828;35.038;2023-04-27T00:34:09;99391.50;;;16.24;100.00
65054;BME280;51639;47.828;35.038;2023-04-27T00:49:11;99411.91;;;16.23;100.00
65054;BME280;51639;47.828;35.038;2023-04-27T01:04:13;99351.59;;;16.02;100.00
65054;BME280;51639;47.828;35.038;2023-04-27T01:19:16;99371.13;;;15.66;100.00
65054;BME280;51639;47.828;35.038;2023-04-27T01:34:18;99362.91;;;15.27;100.00
65054;BME280;51639;47.828;35.038;2023-04-27T01:49:20;99353.63;;;15.10;100.00
65054;BME280;51639;47.828;35.038;2023-04-27T02:04:22;99354.88;;;15.24;100.00
65054;BME280;51639;47.828;35.038;2023-04-27T02:19:24;99328.00;;;15.22;100.00
65054;BME280;51639;47.828;35.038;2023-04-27T02:34:27;99358.38;;;15.24;100.00
65054;BME280;51639;47.828;35.038;2023-04-27T02:49:29;99352.97;;;15.15;100.00
65054;BME280;51639;47.828;35.038;2023-04-27T03:04:31;99357.16;;;15.25;100.00
65054;BME280;51639;47.828;35.038;2023-04-27T03:19:33;99358.03;;;15.31;100.00
65054;BME280;51639;47.828;35.038;2023-04-27T03:34:35;99370.81;;;15.25;100.00
65054;BME280;51639;47.828;35.038;2023-04-27T03:49:37;99372.63;;;15.28;100.00
65054;BME280;51639;47.828;35.038;2023-04-27T04:04:39;99376.97;;;15.59;100.00
65054;BME280;51639;47.828;35.038;2023-04-27T04:19:41;99372.19;;;15.98;100.00
65054;BME280;51639;47.828;35.038;2023-04-27T04:34:49;99361.25;;;16.48;100.00
65054;BME280;51639;47.828;35.038;2023-04-27T04:49:51;99352.97;;;17.64;100.00
65054;BME280;51639;47.828;35.038;2023-04-27T05:04:53;99354.63;;;18.39;100.00
65054;BME280;51639;47.828;35.038;2023-04-27T05:19:57;99340.59;;;19.45;100.00
65054;BME280;51639;47.828;35.038;2023-04-27T05:34:59;99339.94;;;20.17;100.00
65054;BME280;51639;47.828;35.038;2023-04-27T05:50:01;99327.59;;;20.62;100.00
65054;BME280;51639;47.828;35.038;2023-04-27T06:05:04;99318.28;;;20.76;100.00
65054;BME280;51639;47.828;35.038;2023-04-27T06:20:07;99316.84;;;21.22;100.00
65054;BME280;51639;47.828;35.038;2023-04-27T06:35:12;99320.13;;;21.62;100.00
65054;BME280;51639;47.828;35.038;2023-04-27T06:50:14;99318.63;;;22.21;100.00
65054;BME280;51639;47.828;35.038;2023-04-27T07:05:17;99315.19;;;22.88;100.00
65054;BME280;51639;47.828;35.038;2023-04-27T07:20:19;99310.25;;;23.18;100.00
65054;BME280;51639;47.828;35.038;2023-04-27T07:35:21;99310.94;;;23.62;100.00
65054;BME280;51639;47.828;35.038;2023-04-27T07:50:23;99318.84;;;24.16;100.00
65054;BME280;51639;47.828;35.038;2023-04-27T08:05:26;99315.09;;;24.32;99.10
65054;BME280;51639;47.828;35.038;2023-04-27T08:20:30;99322.56;;;24.77;89.54
65054;BME280;51639;47.828;35.038;2023-04-27T08:35:35;99319.41;;;25.07;89.49
65054;BME280;51639;47.828;35.038;2023-04-27T08:50:38;99315.84;;;25.54;82.25
65054;BME280;51639;47.828;35.038;2023-04-27T09:05:47;99307.72;;;26.39;74.56
65054;BME280;51639;47.828;35.038;2023-04-27T09:21:05;99303.84;;;26.78;81.44
65054;BME280;51639;47.828;35.038;2023-04-27T09:36:08;99290.91;;;26.88;79.65
65054;BME280;51639;47.828;35.038;2023-04-27T09:51:13;99314.50;;;27.38;81.67
65054;BME280;51639;47.828;35.038;2023-04-27T10:21:36;99305.13;;;27.05;81.57
65054;BME280;51639;47.828;35.038;2023-04-27T10:36:39;99306.44;;;27.86;76.49
65054;BME280;51639;47.828;35.038;2023-04-27T10:51:41;99335.34;;;27.52;74.93
65054;BME280;51639;47.828;35.038;2023-04-27T11:06:43;99328.97;;;27.29;68.53
65054;BME280;51639;47.828;35.038;2023-04-27T11:21:47;99323.41;;;27.29;71.48
65054;BME280;51639;47.828;35.038;2023-04-27T11:36:56;99319.94;;;26.36;76.46
65054;BME280;51639;47.828;35.038;2023-04-27T11:52:18;99314.53;;;25.00;79.52
65054;BME280;51639;47.828;35.038;2023-04-27T12:07:20;99319.44;;;24.67;84.06
65054;BME280;51639;47.828;35.038;2023-04-27T12:22:22;99313.91;;;24.28;89.00
65054;BME280;51639;47.828;35.038;2023-04-27T12:37:24;99338.22;;;24.48;89.75
65054;BME280;51639;47.828;35.038;2023-04-27T12:52:27;99333.47;;;24.17;91.44
65054;BME280;51639;47.828;35.038;2023-04-27T13:07:32;99348.75;;;23.91;92.82
65054;BME280;51639;47.828;35.038;2023-04-27T13:22:34;99343.56;;;23.69;100.00
65054;BME280;51639;47.828;35.038;2023-04-27T13:37:39;99352.34;;;23.35;100.00
65054;BME280;51639;47.828;35.038;2023-04-27T13:52:43;99368.84;;;23.03;100.00
65054;BME280;51639;47.828;35.038;2023-04-27T14:07:45;99389.50;;;23.21;100.00
65054;BME280;51639;47.828;35.038;2023-04-27T14:22:47;99388.25;;;22.79;100.00
65054;BME280;51639;47.828;35.038;2023-04-27T14:37:50;99395.47;;;22.58;100.00
65054;BME280;51639;47.828;35.038;2023-04-27T14:52:53;99401.31;;;22.78;100.00
65054;BME280;51639;47.828;35.038;2023-04-27T15:07:58;99412.09;;;22.82;100.00
65054;BME280;51639;47.828;35.038;2023-04-27T15:23:00;99436.81;;;22.15;100.00
65054;BME280;51639;47.828;35.038;2023-04-27T15:38:03;99459.72;;;21.57;100.00
65054;BME280;51639;47.828;35.038;2023-04-27T15:53:04;99479.25;;;20.68;100.00
65054;BME280;51639;47.828;35.038;2023-04-27T16:08:06;99486.44;;;19.98;100.00
65054;BME280;51639;47.828;35.038;2023-04-27T16:23:08;99494.09;;;19.18;100.00
65054;BME280;51639;47.828;35.038;2023-04-27T16:38:10;99512.03;;;19.08;100.00
65054;BME280;51639;47.828;35.038;2023-04-27T16:53:12;99520.84;;;19.12;100.00
65054;BME280;51639;47.828;35.038;2023-04-27T17:08:23;99525.00;;;19.02;100.00
65054;BME280;51639;47.828;35.038;2023-04-27T17:23:27;99532.91;;;18.89;100.00
65054;BME280;51639;47.828;35.038;2023-04-27T17:38:29;99546.31;;;18.76;100.00
65054;BME280;51639;47.828;35.038;2023-04-27T17:53:33;99563.47;;;18.65;100.00
65054;BME280;51639;47.828;35.038;2023-04-27T18:09:05;99558.47;;;18.43;100.00
65054;BME280;51639;47.828;35.038;2023-04-27T18:24:10;99572.22;;;18.17;100.00
65054;BME280;51639;47.828;35.038;2023-04-27T18:39:18;99600.41;;;17.97;100.00
65054;BME280;51639;47.828;35.038;2023-04-27T18:54:23;99611.28;;;17.86;100.00
65054;BME280;51639;47.828;35.038;2023-04-27T19:09:26;99605.91;;;17.77;100.00
65054;BME280;51639;47.828;35.038;2023-04-27T19:24:28;99590.09;;;17.72;100.00
65054;BME280;51639;47.828;35.038;2023-04-27T19:39:31;99612.84;;;17.58;100.00
65054;BME280;51639;47.828;35.038;2023-04-27T19:54:35;99594.75;;;17.46;100.00
65054;BME280;51639;47.828;35.038;2023-04-27T20:09:38;99610.31;;;17.19;100.00
65054;BME280;51639;47.828;35.038;2023-04-27T20:24:41;99606.91;;;16.95;100.00
65054;BME280;51639;47.828;35.038;2023-04-27T20:39:43;99588.63;;;16.62;100.00
65054;BME280;51639;47.828;35.038;2023-04-27T20:54:45;99599.97;;;16.55;100.00
65054;BME280;51639;47.828;35.038;2023-04-27T21:09:47;99603.94;;;16.54;100.00
65054;BME280;51639;47.828;35.038;2023-04-27T21:24:49;99612.88;;;16.40;100.00
65054;BME280;51639;47.828;35.038;2023-04-27T21:39:51;99614.91;;;16.16;100.00
65054;BME280;51639;47.828;35.038;2023-04-27T21:54:53;99603.47;;;16.02;100.00
65054;BME280;51639;47.828;35.038;2023-04-27T22:09:55;99606.25;;;15.93;100.00
65054;BME280;51639;47.828;35.038;2023-04-27T22:24:57;99594.72;;;15.89;100.00
65054;BME280;51639;47.828;35.038;2023-04-27T22:39:59;99590.63;;;15.85;100.00
65054;BME280;51639;47.828;35.038;2023-04-27T22:55:01;99563.94;;;15.56;100.00
65054;BME280;51639;47.828;35.038;2023-04-27T23:10:03;99564.81;;;15.53;100.00
65054;BME280;51639;47.828;35.038;2023-04-27T23:25:06;99568.59;;;15.55;100.00
65054;BME280;51639;47.828;35.038;2023-04-27T23:40:08;99569.25;;;15.50;100.00
65054;BME280;51639;47.828;35.038;2023-04-27T23:55:10;99567.75;;;15.40;100.00
